sensor_id;sensor_type;location;lat;lon;timestamp;temperature;humidity
74376;HTU21D;62812;55.188;61.302;2022-09-20T00:00:38;16.72;69.08
74376;HTU21D;62812;55.188;61.302;2022-09-20T00:03:04;16.64;69.81
74376;HTU21D;62812;55.188;61.302;2022-09-20T00:05:33;16.58;69.75
74376;HTU21D;62812;55.188;61.302;2022-09-20T00:08:01;16.56;69.12
74376;HTU21D;62812;55.188;61.302;2022-09-20T00:10:28;16.51;69.47
74376;HTU21D;62812;55.188;61.302;2022-09-20T00:12:57;16.46;70.38
74376;HTU21D;62812;55.188;61.302;2022-09-20T00:15:24;16.43;70.00
74376;HTU21D;62812;55.188;61.302;2022-09-20T00:17:50;16.41;70.34
74376;HTU21D;62812;55.188;61.302;2022-09-20T00:20:17;16.40;70.70
74376;HTU21D;62812;55.188;61.302;2022-09-20T00:22:43;16.34;70.20
74376;HTU21D;62812;55.188;61.302;2022-09-20T00:25:10;16.33;70.65
74376;HTU21D;62812;55.188;61.302;2022-09-20T00:27:36;16.27;70.49
74376;HTU21D;62812;55.188;61.302;2022-09-20T00:30:05;16.22;70.09
74376;HTU21D;62812;55.188;61.302;2022-09-20T00:32:32;16.20;70.24
74376;HTU21D;62812;55.188;61.302;2022-09-20T00:34:58;16.20;69.94
74376;HTU21D;62812;55.188;61.302;2022-09-20T00:37:35;16.24;69.71
74376;HTU21D;62812;55.188;61.302;2022-09-20T00:40:04;16.25;69.65
74376;HTU21D;62812;55.188;61.302;2022-09-20T00:42:31;16.26;69.96
74376;HTU21D;62812;55.188;61.302;2022-09-20T00:44:58;16.24;70.00
74376;HTU21D;62812;55.188;61.302;2022-09-20T00:47:32;16.25;70.44
74376;HTU21D;62812;55.188;61.302;2022-09-20T00:50:07;16.25;69.82
74376;HTU21D;62812;55.188;61.302;2022-09-20T00:52:38;16.21;70.00
74376;HTU21D;62812;55.188;61.302;2022-09-20T00:55:07;16.18;70.06
74376;HTU21D;62812;55.188;61.302;2022-09-20T00:57:34;16.14;70.16
74376;HTU21D;62812;55.188;61.302;2022-09-20T01:00:03;16.11;70.58
74376;HTU21D;62812;55.188;61.302;2022-09-20T01:02:35;16.08;70.64
74376;HTU21D;62812;55.188;61.302;2022-09-20T01:05:03;16.12;70.47
74376;HTU21D;62812;55.188;61.302;2022-09-20T01:07:30;16.14;70.58
74376;HTU21D;62812;55.188;61.302;2022-09-20T01:09:57;16.14;70.48
74376;HTU21D;62812;55.188;61.302;2022-09-20T01:12:27;16.12;70.57
74376;HTU21D;62812;55.188;61.302;2022-09-20T01:14:55;16.07;70.91
74376;HTU21D;62812;55.188;61.302;2022-09-20T01:17:24;16.00;71.35
74376;HTU21D;62812;55.188;61.302;2022-09-20T01:20:04;15.97;71.17
74376;HTU21D;62812;55.188;61.302;2022-09-20T01:22:42;15.95;71.35
74376;HTU21D;62812;55.188;61.302;2022-09-20T01:25:14;15.93;71.53
74376;HTU21D;62812;55.188;61.302;2022-09-20T01:27:45;15.93;71.19
74376;HTU21D;62812;55.188;61.302;2022-09-20T01:30:14;15.91;71.75
74376;HTU21D;62812;55.188;61.302;2022-09-20T01:32:51;15.90;71.39
74376;HTU21D;62812;55.188;61.302;2022-09-20T01:35:23;15.91;71.87
74376;HTU21D;62812;55.188;61.302;2022-09-20T01:37:59;15.87;71.80
74376;HTU21D;62812;55.188;61.302;2022-09-20T01:40:34;15.85;72.32
74376;HTU21D;62812;55.188;61.302;2022-09-20T01:43:12;15.83;72.68
74376;HTU21D;62812;55.188;61.302;2022-09-20T01:45:41;15.78;72.87
74376;HTU21D;62812;55.188;61.302;2022-09-20T01:48:16;15.78;72.44
74376;HTU21D;62812;55.188;61.302;2022-09-20T01:51:02;15.81;72.22
74376;HTU21D;62812;55.188;61.302;2022-09-20T01:54:02;15.83;72.47
74376;HTU21D;62812;55.188;61.302;2022-09-20T02:00:10;15.89;72.90
74376;HTU21D;62812;55.188;61.302;2022-09-20T02:06:20;15.90;73.09
74376;HTU21D;62812;55.188;61.302;2022-09-20T02:09:15;16.01;72.51
74376;HTU21D;62812;55.188;61.302;2022-09-20T02:12:04;16.14;72.75
74376;HTU21D;62812;55.188;61.302;2022-09-20T02:14:44;16.24;72.81
74376;HTU21D;62812;55.188;61.302;2022-09-20T02:17:22;16.37;72.20
74376;HTU21D;62812;55.188;61.302;2022-09-20T02:22:50;16.80;70.08
74376;HTU21D;62812;55.188;61.302;2022-09-20T02:25:33;17.17;69.03
74376;HTU21D;62812;55.188;61.302;2022-09-20T02:28:16;17.47;67.44
74376;HTU21D;62812;55.188;61.302;2022-09-20T02:30:51;17.69;66.55
74376;HTU21D;62812;55.188;61.302;2022-09-20T02:33:45;17.83;65.80
74376;HTU21D;62812;55.188;61.302;2022-09-20T02:36:21;18.00;65.58
74376;HTU21D;62812;55.188;61.302;2022-09-20T02:38:58;18.14;64.59
74376;HTU21D;62812;55.188;61.302;2022-09-20T02:41:55;18.44;63.54
74376;HTU21D;62812;55.188;61.302;2022-09-20T02:44:34;18.72;62.26
74376;HTU21D;62812;55.188;61.302;2022-09-20T02:47:11;19.01;61.49
74376;HTU21D;62812;55.188;61.302;2022-09-20T02:49:54;19.36;60.01
74376;HTU21D;62812;55.188;61.302;2022-09-20T02:52:29;19.76;57.48
74376;HTU21D;62812;55.188;61.302;2022-09-20T02:55:02;20.09;56.46
74376;HTU21D;62812;55.188;61.302;2022-09-20T02:57:46;20.33;55.82
74376;HTU21D;62812;55.188;61.302;2022-09-20T03:00:20;20.57;55.13
74376;HTU21D;62812;55.188;61.302;2022-09-20T03:03:00;20.75;54.65
74376;HTU21D;62812;55.188;61.302;2022-09-20T03:05:42;21.00;53.91
74376;HTU21D;62812;55.188;61.302;2022-09-20T03:08:19;21.18;52.82
74376;HTU21D;62812;55.188;61.302;2022-09-20T03:10:56;21.35;52.55
74376;HTU21D;62812;55.188;61.302;2022-09-20T03:13:38;21.67;51.53
74376;HTU21D;62812;55.188;61.302;2022-09-20T03:16:17;21.93;50.43
74376;HTU21D;62812;55.188;61.302;2022-09-20T03:18:53;22.09;49.86
74376;HTU21D;62812;55.188;61.302;2022-09-20T03:21:42;22.18;49.66
74376;HTU21D;62812;55.188;61.302;2022-09-20T03:24:24;22.35;50.22
74376;HTU21D;62812;55.188;61.302;2022-09-20T03:26:59;22.39;49.72
74376;HTU21D;62812;55.188;61.302;2022-09-20T03:29:40;22.41;49.56
74376;HTU21D;62812;55.188;61.302;2022-09-20T03:32:22;22.51;49.05
74376;HTU21D;62812;55.188;61.302;2022-09-20T03:34:58;22.63;49.05
74376;HTU21D;62812;55.188;61.302;2022-09-20T03:40:31;22.90;48.81
74376;HTU21D;62812;55.188;61.302;2022-09-20T03:43:06;23.02;48.28
74376;HTU21D;62812;55.188;61.302;2022-09-20T03:45:53;22.98;48.95
74376;HTU21D;62812;55.188;61.302;2022-09-20T03:48:45;22.95;48.63
74376;HTU21D;62812;55.188;61.302;2022-09-20T03:51:21;23.06;49.05
74376;HTU21D;62812;55.188;61.302;2022-09-20T03:54:21;23.12;48.52
74376;HTU21D;62812;55.188;61.302;2022-09-20T04:00:08;23.09;48.08
74376;HTU21D;62812;55.188;61.302;2022-09-20T04:02:52;22.94;48.49
74376;HTU21D;62812;55.188;61.302;2022-09-20T04:05:29;22.90;48.35
74376;HTU21D;62812;55.188;61.302;2022-09-20T04:08:07;22.91;48.59
74376;HTU21D;62812;55.188;61.302;2022-09-20T04:10:48;22.99;48.58
74376;HTU21D;62812;55.188;61.302;2022-09-20T04:13:34;23.15;49.34
74376;HTU21D;62812;55.188;61.302;2022-09-20T04:16:09;23.17;48.59
74376;HTU21D;62812;55.188;61.302;2022-09-20T04:18:44;23.18;48.84
74376;HTU21D;62812;55.188;61.302;2022-09-20T04:21:17;23.21;48.50
74376;HTU21D;62812;55.188;61.302;2022-09-20T04:23:53;23.27;48.65
74376;HTU21D;62812;55.188;61.302;2022-09-20T04:26:25;23.38;48.04
74376;HTU21D;62812;55.188;61.302;2022-09-20T04:28:59;23.39;48.04
74376;HTU21D;62812;55.188;61.302;2022-09-20T04:31:34;23.44;48.23
74376;HTU21D;62812;55.188;61.302;2022-09-20T04:34:05;23.45;48.27
74376;HTU21D;62812;55.188;61.302;2022-09-20T04:36:54;23.50;47.98
74376;HTU21D;62812;55.188;61.302;2022-09-20T04:39:28;23.58;47.76
74376;HTU21D;62812;55.188;61.302;2022-09-20T04:48:23;23.86;48.20
74376;HTU21D;62812;55.188;61.302;2022-09-20T04:51:26;23.98;48.77
74376;HTU21D;62812;55.188;61.302;2022-09-20T04:57:23;24.30;47.26
74376;HTU21D;62812;55.188;61.302;2022-09-20T05:00:02;24.38;48.37
74376;HTU21D;62812;55.188;61.302;2022-09-20T05:06:05;24.50;46.79
74376;HTU21D;62812;55.188;61.302;2022-09-20T05:09:12;24.69;46.12
74376;HTU21D;62812;55.188;61.302;2022-09-20T05:11:55;24.87;45.14
74376;HTU21D;62812;55.188;61.302;2022-09-20T05:14:58;24.95;44.99
74376;HTU21D;62812;55.188;61.302;2022-09-20T05:17:37;25.00;45.70
74376;HTU21D;62812;55.188;61.302;2022-09-20T05:20:37;25.13;45.99
74376;HTU21D;62812;55.188;61.302;2022-09-20T05:26:18;25.09;44.81
74376;HTU21D;62812;55.188;61.302;2022-09-20T05:28:55;25.09;46.51
74376;HTU21D;62812;55.188;61.302;2022-09-20T05:31:34;25.15;43.58
74376;HTU21D;62812;55.188;61.302;2022-09-20T05:34:10;25.12;43.19
74376;HTU21D;62812;55.188;61.302;2022-09-20T05:36:48;25.13;45.28
74376;HTU21D;62812;55.188;61.302;2022-09-20T05:39:30;25.27;46.56
74376;HTU21D;62812;55.188;61.302;2022-09-20T05:42:06;25.34;43.29
74376;HTU21D;62812;55.188;61.302;2022-09-20T05:44:49;25.38;45.51
74376;HTU21D;62812;55.188;61.302;2022-09-20T05:47:26;25.46;43.19
74376;HTU21D;62812;55.188;61.302;2022-09-20T05:50:10;25.51;45.35
74376;HTU21D;62812;55.188;61.302;2022-09-20T05:52:46;25.50;43.38
74376;HTU21D;62812;55.188;61.302;2022-09-20T05:55:40;25.38;44.04
74376;HTU21D;62812;55.188;61.302;2022-09-20T05:58:27;25.39;43.58
74376;HTU21D;62812;55.188;61.302;2022-09-20T06:01:00;25.44;45.59
74376;HTU21D;62812;55.188;61.302;2022-09-20T06:03:34;25.51;44.99
74376;HTU21D;62812;55.188;61.302;2022-09-20T06:06:09;25.51;44.62
74376;HTU21D;62812;55.188;61.302;2022-09-20T06:08:54;25.49;42.45
74376;HTU21D;62812;55.188;61.302;2022-09-20T06:14:42;25.56;43.71
74376;HTU21D;62812;55.188;61.302;2022-09-20T06:17:20;25.62;45.04
74376;HTU21D;62812;55.188;61.302;2022-09-20T06:19:55;25.63;43.96
74376;HTU21D;62812;55.188;61.302;2022-09-20T06:22:28;25.65;43.39
74376;HTU21D;62812;55.188;61.302;2022-09-20T06:25:02;25.64;43.55
74376;HTU21D;62812;55.188;61.302;2022-09-20T06:27:34;25.63;42.00
74376;HTU21D;62812;55.188;61.302;2022-09-20T06:30:13;25.68;42.93
74376;HTU21D;62812;55.188;61.302;2022-09-20T06:32:52;25.73;43.67
74376;HTU21D;62812;55.188;61.302;2022-09-20T06:35:20;25.79;44.18
74376;HTU21D;62812;55.188;61.302;2022-09-20T06:37:53;25.83;43.88
74376;HTU21D;62812;55.188;61.302;2022-09-20T06:40:46;25.84;43.61
74376;HTU21D;62812;55.188;61.302;2022-09-20T06:43:34;25.88;42.00
74376;HTU21D;62812;55.188;61.302;2022-09-20T06:46:02;25.89;42.34
74376;HTU21D;62812;55.188;61.302;2022-09-20T06:48:29;25.91;42.55
74376;HTU21D;62812;55.188;61.302;2022-09-20T06:50:57;25.95;41.86
74376;HTU21D;62812;55.188;61.302;2022-09-20T06:53:27;26.02;42.30
74376;HTU21D;62812;55.188;61.302;2022-09-20T06:55:54;26.04;41.97
74376;HTU21D;62812;55.188;61.302;2022-09-20T06:58:21;26.09;41.75
74376;HTU21D;62812;55.188;61.302;2022-09-20T07:00:48;26.13;40.28
74376;HTU21D;62812;55.188;61.302;2022-09-20T07:03:21;26.12;39.56
74376;HTU21D;62812;55.188;61.302;2022-09-20T07:05:47;26.11;36.41
74376;HTU21D;62812;55.188;61.302;2022-09-20T07:08:15;26.11;40.20
74376;HTU21D;62812;55.188;61.302;2022-09-20T07:10:44;26.15;39.71
74376;HTU21D;62812;55.188;61.302;2022-09-20T07:13:11;26.17;40.39
74376;HTU21D;62812;55.188;61.302;2022-09-20T07:15:39;26.19;39.91
74376;HTU21D;62812;55.188;61.302;2022-09-20T07:18:06;26.22;38.88
74376;HTU21D;62812;55.188;61.302;2022-09-20T07:20:36;26.24;39.74
74376;HTU21D;62812;55.188;61.302;2022-09-20T07:23:03;26.27;38.96
74376;HTU21D;62812;55.188;61.302;2022-09-20T07:25:30;26.28;38.26
74376;HTU21D;62812;55.188;61.302;2022-09-20T07:27:57;26.33;37.85
74376;HTU21D;62812;55.188;61.302;2022-09-20T07:30:23;26.36;36.40
74376;HTU21D;62812;55.188;61.302;2022-09-20T07:32:50;26.42;34.73
74376;HTU21D;62812;55.188;61.302;2022-09-20T07:35:17;26.49;38.34
74376;HTU21D;62812;55.188;61.302;2022-09-20T07:37:45;26.53;37.13
74376;HTU21D;62812;55.188;61.302;2022-09-20T07:40:12;26.57;36.80
74376;HTU21D;62812;55.188;61.302;2022-09-20T07:42:41;26.58;36.24
74376;HTU21D;62812;55.188;61.302;2022-09-20T07:45:10;26.58;34.50
74376;HTU21D;62812;55.188;61.302;2022-09-20T07:47:42;26.63;33.38
74376;HTU21D;62812;55.188;61.302;2022-09-20T07:50:10;26.67;32.54
74376;HTU21D;62812;55.188;61.302;2022-09-20T07:52:36;26.69;35.13
74376;HTU21D;62812;55.188;61.302;2022-09-20T07:55:05;26.72;35.53
74376;HTU21D;62812;55.188;61.302;2022-09-20T07:57:35;26.75;35.02
74376;HTU21D;62812;55.188;61.302;2022-09-20T08:00:05;26.79;34.61
74376;HTU21D;62812;55.188;61.302;2022-09-20T08:02:32;26.79;32.00
74376;HTU21D;62812;55.188;61.302;2022-09-20T08:04:59;26.80;34.49
74376;HTU21D;62812;55.188;61.302;2022-09-20T08:07:31;26.81;31.46
74376;HTU21D;62812;55.188;61.302;2022-09-20T08:09:57;26.84;31.80
74376;HTU21D;62812;55.188;61.302;2022-09-20T08:12:26;26.84;33.64
74376;HTU21D;62812;55.188;61.302;2022-09-20T08:14:53;26.83;31.42
74376;HTU21D;62812;55.188;61.302;2022-09-20T08:17:20;26.87;28.11
74376;HTU21D;62812;55.188;61.302;2022-09-20T08:19:49;26.87;32.89
74376;HTU21D;62812;55.188;61.302;2022-09-20T08:22:21;26.91;31.40
74376;HTU21D;62812;55.188;61.302;2022-09-20T08:24:48;26.90;25.99
74376;HTU21D;62812;55.188;61.302;2022-09-20T08:27:15;26.91;32.17
74376;HTU21D;62812;55.188;61.302;2022-09-20T08:29:43;26.93;29.14
74376;HTU21D;62812;55.188;61.302;2022-09-20T08:32:09;26.93;30.95
74376;HTU21D;62812;55.188;61.302;2022-09-20T08:34:36;26.96;32.31
74376;HTU21D;62812;55.188;61.302;2022-09-20T08:37:04;26.94;31.22
74376;HTU21D;62812;55.188;61.302;2022-09-20T08:39:31;26.93;31.30
74376;HTU21D;62812;55.188;61.302;2022-09-20T08:42:11;26.93;25.28
74376;HTU21D;62812;55.188;61.302;2022-09-20T08:44:48;26.94;31.30
74376;HTU21D;62812;55.188;61.302;2022-09-20T08:47:41;26.91;25.85
74376;HTU21D;62812;55.188;61.302;2022-09-20T08:50:37;26.92;29.16
74376;HTU21D;62812;55.188;61.302;2022-09-20T08:53:04;26.92;25.17
74376;HTU21D;62812;55.188;61.302;2022-09-20T08:55:31;26.92;28.09
74376;HTU21D;62812;55.188;61.302;2022-09-20T08:57:59;26.93;30.14
74376;HTU21D;62812;55.188;61.302;2022-09-20T09:00:30;26.91;29.48
74376;HTU21D;62812;55.188;61.302;2022-09-20T09:02:59;26.91;26.89
74376;HTU21D;62812;55.188;61.302;2022-09-20T09:05:31;26.91;27.36
74376;HTU21D;62812;55.188;61.302;2022-09-20T09:07:59;26.94;28.97
74376;HTU21D;62812;55.188;61.302;2022-09-20T09:10:28;26.95;24.62
74376;HTU21D;62812;55.188;61.302;2022-09-20T09:12:58;26.95;27.97
74376;HTU21D;62812;55.188;61.302;2022-09-20T09:15:31;26.95;25.11
74376;HTU21D;62812;55.188;61.302;2022-09-20T09:17:59;26.96;28.47
74376;HTU21D;62812;55.188;61.302;2022-09-20T09:20:26;26.94;27.58
74376;HTU21D;62812;55.188;61.302;2022-09-20T09:23:00;26.96;26.25
74376;HTU21D;62812;55.188;61.302;2022-09-20T09:25:29;26.98;26.84
74376;HTU21D;62812;55.188;61.302;2022-09-20T09:28:02;26.99;23.71
74376;HTU21D;62812;55.188;61.302;2022-09-20T09:30:40;26.97;22.23
74376;HTU21D;62812;55.188;61.302;2022-09-20T09:33:25;27.00;26.89
74376;HTU21D;62812;55.188;61.302;2022-09-20T09:35:55;27.02;28.20
74376;HTU21D;62812;55.188;61.302;2022-09-20T09:38:28;26.99;26.63
74376;HTU21D;62812;55.188;61.302;2022-09-20T09:40:56;26.98;27.04
74376;HTU21D;62812;55.188;61.302;2022-09-20T09:43:25;26.96;20.71
74376;HTU21D;62812;55.188;61.302;2022-09-20T09:46:16;26.97;20.15
74376;HTU21D;62812;55.188;61.302;2022-09-20T09:48:44;26.99;25.17
74376;HTU21D;62812;55.188;61.302;2022-09-20T09:51:16;26.94;26.70
74376;HTU21D;62812;55.188;61.302;2022-09-20T09:53:45;26.94;23.39
74376;HTU21D;62812;55.188;61.302;2022-09-20T09:56:28;26.96;25.90
74376;HTU21D;62812;55.188;61.302;2022-09-20T09:59:09;26.97;26.29
74376;HTU21D;62812;55.188;61.302;2022-09-20T10:01:45;26.95;26.78
74376;HTU21D;62812;55.188;61.302;2022-09-20T10:04:16;26.93;24.27
74376;HTU21D;62812;55.188;61.302;2022-09-20T10:06:51;26.90;26.46
74376;HTU21D;62812;55.188;61.302;2022-09-20T10:09:32;26.87;20.13
74376;HTU21D;62812;55.188;61.302;2022-09-20T10:12:14;26.89;25.78
74376;HTU21D;62812;55.188;61.302;2022-09-20T10:14:55;26.89;26.25
74376;HTU21D;62812;55.188;61.302;2022-09-20T10:17:45;26.86;23.26
74376;HTU21D;62812;55.188;61.302;2022-09-20T10:23:45;26.82;24.73
74376;HTU21D;62812;55.188;61.302;2022-09-20T10:26:25;26.81;21.88
74376;HTU21D;62812;55.188;61.302;2022-09-20T10:29:05;26.81;20.41
74376;HTU21D;62812;55.188;61.302;2022-09-20T10:31:46;26.84;18.78
74376;HTU21D;62812;55.188;61.302;2022-09-20T10:37:21;26.86;21.37
74376;HTU21D;62812;55.188;61.302;2022-09-20T10:40:01;26.85;20.66
74376;HTU21D;62812;55.188;61.302;2022-09-20T10:42:33;26.85;25.87
74376;HTU21D;62812;55.188;61.302;2022-09-20T10:45:30;26.82;22.71
74376;HTU21D;62812;55.188;61.302;2022-09-20T10:48:03;26.78;23.07
74376;HTU21D;62812;55.188;61.302;2022-09-20T10:50:42;26.79;22.91
74376;HTU21D;62812;55.188;61.302;2022-09-20T10:53:21;26.76;24.24
74376;HTU21D;62812;55.188;61.302;2022-09-20T10:55:58;26.73;17.28
74376;HTU21D;62812;55.188;61.302;2022-09-20T10:59:06;26.75;23.52
74376;HTU21D;62812;55.188;61.302;2022-09-20T11:01:41;26.75;21.67
74376;HTU21D;62812;55.188;61.302;2022-09-20T11:04:33;26.75;17.60
74376;HTU21D;62812;55.188;61.302;2022-09-20T11:07:10;26.75;20.23
74376;HTU21D;62812;55.188;61.302;2022-09-20T11:09:41;26.73;20.95
74376;HTU21D;62812;55.188;61.302;2022-09-20T11:12:11;26.75;23.95
74376;HTU21D;62812;55.188;61.302;2022-09-20T11:14:42;26.73;23.88
74376;HTU21D;62812;55.188;61.302;2022-09-20T11:17:18;26.72;23.37
74376;HTU21D;62812;55.188;61.302;2022-09-20T11:19:52;26.71;22.95
74376;HTU21D;62812;55.188;61.302;2022-09-20T11:22:27;26.69;22.98
74376;HTU21D;62812;55.188;61.302;2022-09-20T11:25:01;26.69;18.89
74376;HTU21D;62812;55.188;61.302;2022-09-20T11:27:32;26.66;23.97
74376;HTU21D;62812;55.188;61.302;2022-09-20T11:30:13;26.64;24.72
74376;HTU21D;62812;55.188;61.302;2022-09-20T11:32:43;26.62;24.26
74376;HTU21D;62812;55.188;61.302;2022-09-20T11:35:21;26.58;23.35
74376;HTU21D;62812;55.188;61.302;2022-09-20T11:37:59;26.57;24.20
74376;HTU21D;62812;55.188;61.302;2022-09-20T11:40:31;26.54;23.91
74376;HTU21D;62812;55.188;61.302;2022-09-20T11:43:00;26.53;20.62
74376;HTU21D;62812;55.188;61.302;2022-09-20T11:45:29;26.49;23.99
74376;HTU21D;62812;55.188;61.302;2022-09-20T11:47:59;26.52;23.56
74376;HTU21D;62812;55.188;61.302;2022-09-20T11:50:46;26.50;22.82
74376;HTU21D;62812;55.188;61.302;2022-09-20T11:53:28;26.47;22.44
74376;HTU21D;62812;55.188;61.302;2022-09-20T11:55:59;26.49;22.85
74376;HTU21D;62812;55.188;61.302;2022-09-20T11:58:27;26.48;17.45
74376;HTU21D;62812;55.188;61.302;2022-09-20T12:00:55;26.42;18.15
74376;HTU21D;62812;55.188;61.302;2022-09-20T12:03:29;26.45;22.81
74376;HTU21D;62812;55.188;61.302;2022-09-20T12:05:58;26.45;23.07
74376;HTU21D;62812;55.188;61.302;2022-09-20T12:08:31;26.45;23.82
74376;HTU21D;62812;55.188;61.302;2022-09-20T12:11:01;26.41;20.47
74376;HTU21D;62812;55.188;61.302;2022-09-20T12:13:30;26.42;22.56
74376;HTU21D;62812;55.188;61.302;2022-09-20T12:16:02;26.40;22.89
74376;HTU21D;62812;55.188;61.302;2022-09-20T12:18:36;26.36;23.56
74376;HTU21D;62812;55.188;61.302;2022-09-20T12:21:08;26.30;19.52
74376;HTU21D;62812;55.188;61.302;2022-09-20T12:26:51;26.24;24.09
74376;HTU21D;62812;55.188;61.302;2022-09-20T12:30:03;26.20;23.47
74376;HTU21D;62812;55.188;61.302;2022-09-20T12:32:52;26.17;23.02
74376;HTU21D;62812;55.188;61.302;2022-09-20T12:38:44;26.13;24.10
74376;HTU21D;62812;55.188;61.302;2022-09-20T12:41:20;26.07;24.01
74376;HTU21D;62812;55.188;61.302;2022-09-20T12:44:05;26.04;22.98
74376;HTU21D;62812;55.188;61.302;2022-09-20T12:46:51;26.01;18.74
74376;HTU21D;62812;55.188;61.302;2022-09-20T12:49:36;25.98;21.45
74376;HTU21D;62812;55.188;61.302;2022-09-20T12:52:29;25.97;24.04
74376;HTU21D;62812;55.188;61.302;2022-09-20T12:55:42;25.93;23.66
74376;HTU21D;62812;55.188;61.302;2022-09-20T12:58:23;25.87;23.22
74376;HTU21D;62812;55.188;61.302;2022-09-20T13:01:32;25.82;24.85
74376;HTU21D;62812;55.188;61.302;2022-09-20T13:04:48;25.77;23.37
74376;HTU21D;62812;55.188;61.302;2022-09-20T13:07:35;25.69;24.68
74376;HTU21D;62812;55.188;61.302;2022-09-20T13:10:21;25.66;24.02
74376;HTU21D;62812;55.188;61.302;2022-09-20T13:12:51;25.61;25.14
74376;HTU21D;62812;55.188;61.302;2022-09-20T13:15:25;25.57;25.20
74376;HTU21D;62812;55.188;61.302;2022-09-20T13:18:37;25.48;19.17
74376;HTU21D;62812;55.188;61.302;2022-09-20T13:21:07;25.46;24.66
74376;HTU21D;62812;55.188;61.302;2022-09-20T13:23:44;25.42;25.67
74376;HTU21D;62812;55.188;61.302;2022-09-20T13:26:17;25.34;22.62
74376;HTU21D;62812;55.188;61.302;2022-09-20T13:28:49;25.30;26.24
74376;HTU21D;62812;55.188;61.302;2022-09-20T13:31:25;25.24;24.76
74376;HTU21D;62812;55.188;61.302;2022-09-20T13:33:54;25.16;18.70
74376;HTU21D;62812;55.188;61.302;2022-09-20T13:36:27;25.12;25.63
74376;HTU21D;62812;55.188;61.302;2022-09-20T13:38:59;25.06;26.46
74376;HTU21D;62812;55.188;61.302;2022-09-20T13:41:27;25.00;26.85
74376;HTU21D;62812;55.188;61.302;2022-09-20T13:46:50;24.87;26.15
74376;HTU21D;62812;55.188;61.302;2022-09-20T13:49:19;24.82;25.17
74376;HTU21D;62812;55.188;61.302;2022-09-20T13:51:49;24.77;27.17
74376;HTU21D;62812;55.188;61.302;2022-09-20T13:54:26;24.71;23.17
74376;HTU21D;62812;55.188;61.302;2022-09-20T13:56:55;24.66;19.91
74376;HTU21D;62812;55.188;61.302;2022-09-20T13:59:23;24.61;23.15
74376;HTU21D;62812;55.188;61.302;2022-09-20T14:01:53;24.55;28.39
74376;HTU21D;62812;55.188;61.302;2022-09-20T14:04:30;24.47;28.15
74376;HTU21D;62812;55.188;61.302;2022-09-20T14:06:59;24.40;28.20
74376;HTU21D;62812;55.188;61.302;2022-09-20T14:09:28;24.32;22.53
74376;HTU21D;62812;55.188;61.302;2022-09-20T14:11:59;24.27;20.11
74376;HTU21D;62812;55.188;61.302;2022-09-20T14:14:26;24.20;28.48
74376;HTU21D;62812;55.188;61.302;2022-09-20T14:16:55;24.15;27.03
74376;HTU21D;62812;55.188;61.302;2022-09-20T14:19:26;24.10;28.97
74376;HTU21D;62812;55.188;61.302;2022-09-20T14:21:58;24.03;28.36
74376;HTU21D;62812;55.188;61.302;2022-09-20T14:24:33;23.97;28.39
74376;HTU21D;62812;55.188;61.302;2022-09-20T14:27:14;23.91;24.05
74376;HTU21D;62812;55.188;61.302;2022-09-20T14:29:43;23.88;29.09
74376;HTU21D;62812;55.188;61.302;2022-09-20T14:32:25;23.80;29.63
74376;HTU21D;62812;55.188;61.302;2022-09-20T14:34:59;23.74;29.41
74376;HTU21D;62812;55.188;61.302;2022-09-20T14:37:40;23.69;30.28
74376;HTU21D;62812;55.188;61.302;2022-09-20T14:40:19;23.62;30.04
74376;HTU21D;62812;55.188;61.302;2022-09-20T14:42:49;23.57;29.97
74376;HTU21D;62812;55.188;61.302;2022-09-20T14:45:21;23.51;30.60
74376;HTU21D;62812;55.188;61.302;2022-09-20T14:47:58;23.43;30.58
74376;HTU21D;62812;55.188;61.302;2022-09-20T14:50:29;23.39;31.58
74376;HTU21D;62812;55.188;61.302;2022-09-20T14:53:21;23.29;31.37
74376;HTU21D;62812;55.188;61.302;2022-09-20T14:55:57;23.23;32.02
74376;HTU21D;62812;55.188;61.302;2022-09-20T14:58:26;23.16;32.22
74376;HTU21D;62812;55.188;61.302;2022-09-20T15:00:55;23.10;31.76
74376;HTU21D;62812;55.188;61.302;2022-09-20T15:03:30;23.03;32.64
74376;HTU21D;62812;55.188;61.302;2022-09-20T15:05:58;22.98;32.88
74376;HTU21D;62812;55.188;61.302;2022-09-20T15:08:26;22.92;31.84
74376;HTU21D;62812;55.188;61.302;2022-09-20T15:10:58;22.87;32.49
74376;HTU21D;62812;55.188;61.302;2022-09-20T15:13:25;22.82;32.48
74376;HTU21D;62812;55.188;61.302;2022-09-20T15:15:52;22.78;33.77
74376;HTU21D;62812;55.188;61.302;2022-09-20T15:18:20;22.72;32.36
74376;HTU21D;62812;55.188;61.302;2022-09-20T15:20:51;22.68;32.89
74376;HTU21D;62812;55.188;61.302;2022-09-20T15:23:18;22.63;32.88
74376;HTU21D;62812;55.188;61.302;2022-09-20T15:25:49;22.57;33.36
74376;HTU21D;62812;55.188;61.302;2022-09-20T15:28:28;22.54;33.38
74376;HTU21D;62812;55.188;61.302;2022-09-20T15:30:58;22.49;33.34
74376;HTU21D;62812;55.188;61.302;2022-09-20T15:33:29;22.43;33.42
74376;HTU21D;62812;55.188;61.302;2022-09-20T15:36:02;22.37;33.31
74376;HTU21D;62812;55.188;61.302;2022-09-20T15:38:29;22.34;33.00
74376;HTU21D;62812;55.188;61.302;2022-09-20T15:41:01;22.29;33.80
74376;HTU21D;62812;55.188;61.302;2022-09-20T15:43:29;22.24;29.19
74376;HTU21D;62812;55.188;61.302;2022-09-20T15:45:58;22.20;35.17
74376;HTU21D;62812;55.188;61.302;2022-09-20T15:48:29;22.17;35.09
74376;HTU21D;62812;55.188;61.302;2022-09-20T15:51:02;22.12;30.78
74376;HTU21D;62812;55.188;61.302;2022-09-20T15:53:32;22.10;34.74
74376;HTU21D;62812;55.188;61.302;2022-09-20T15:56:03;22.06;35.25
74376;HTU21D;62812;55.188;61.302;2022-09-20T15:58:32;22.02;34.15
74376;HTU21D;62812;55.188;61.302;2022-09-20T16:01:14;21.97;33.63
74376;HTU21D;62812;55.188;61.302;2022-09-20T16:03:47;21.94;34.29
74376;HTU21D;62812;55.188;61.302;2022-09-20T16:06:28;21.89;35.34
74376;HTU21D;62812;55.188;61.302;2022-09-20T16:08:57;21.81;35.70
74376;HTU21D;62812;55.188;61.302;2022-09-20T16:11:28;21.77;35.16
74376;HTU21D;62812;55.188;61.302;2022-09-20T16:13:56;21.70;28.68
74376;HTU21D;62812;55.188;61.302;2022-09-20T16:16:24;21.65;35.50
74376;HTU21D;62812;55.188;61.302;2022-09-20T16:18:51;21.59;29.74
74376;HTU21D;62812;55.188;61.302;2022-09-20T16:21:36;21.53;33.51
74376;HTU21D;62812;55.188;61.302;2022-09-20T16:24:05;21.49;34.61
74376;HTU21D;62812;55.188;61.302;2022-09-20T16:26:34;21.44;34.34
74376;HTU21D;62812;55.188;61.302;2022-09-20T16:29:05;21.39;36.21
74376;HTU21D;62812;55.188;61.302;2022-09-20T16:31:36;21.35;36.05
74376;HTU21D;62812;55.188;61.302;2022-09-20T16:34:34;21.31;37.55
74376;HTU21D;62812;55.188;61.302;2022-09-20T16:37:13;21.22;30.12
74376;HTU21D;62812;55.188;61.302;2022-09-20T16:39:42;21.18;35.02
74376;HTU21D;62812;55.188;61.302;2022-09-20T16:42:17;21.13;34.50